createdAt,value
2018-07-04T00:00:30.739Z,17.10
2018-07-04T00:03:55.473Z,17.00
2018-07-04T00:07:40.605Z,17.10
2018-07-04T00:11:03.949Z,17.00
2018-07-04T00:14:27.620Z,17.00
2018-07-04T00:17:51.466Z,17.00
2018-07-04T00:21:33.530Z,17.00
2018-07-04T00:25:15.703Z,17.00
2018-07-04T00:28:41.896Z,17.10
2018-07-04T00:32:24.309Z,17.10
2018-07-04T00:35:47.994Z,17.00
2018-07-04T00:39:30.097Z,17.00
2018-07-04T00:42:53.702Z,17.10
2018-07-04T00:46:17.152Z,17.10
2018-07-04T00:49:59.719Z,17.10
2018-07-04T00:53:23.557Z,17.00
2018-07-04T00:56:47.729Z,17.00
2018-07-04T01:00:30.064Z,16.90
2018-07-04T01:04:12.234Z,16.90
2018-07-04T01:07:54.175Z,16.80
2018-07-04T01:11:36.423Z,16.80
2018-07-04T01:15:19.027Z,16.80
2018-07-04T01:19:01.244Z,16.80
2018-07-04T01:22:43.141Z,16.80
2018-07-04T01:26:06.200Z,16.90
2018-07-04T01:29:48.005Z,16.80
2018-07-04T01:33:30.796Z,16.70
2018-07-04T01:37:12.953Z,16.50
2018-07-04T01:40:55.047Z,16.60
2018-07-04T01:44:37.049Z,16.60
2018-07-04T01:48:00.824Z,16.50
2018-07-04T01:51:24.132Z,16.50
2018-07-04T01:55:06.230Z,16.40
2018-07-04T01:58:29.693Z,16.30
2018-07-04T02:02:11.545Z,16.40
2018-07-04T02:05:34.554Z,16.40
2018-07-04T02:08:57.878Z,16.20
2018-07-04T02:12:21.739Z,16.10
2018-07-04T02:16:03.643Z,16.10
2018-07-04T02:19:46.388Z,16.20
2018-07-04T02:23:28.676Z,16.10
2018-07-04T02:26:52.042Z,16.10
2018-07-04T02:30:33.943Z,16.00
2018-07-04T02:33:57.418Z,15.90
2018-07-04T02:37:21.256Z,16.00
2018-07-04T02:41:03.222Z,15.90
2018-07-04T02:44:45.359Z,15.90
2018-07-04T02:48:27.309Z,15.90
2018-07-04T02:51:50.938Z,15.80
2018-07-04T02:55:14.471Z,15.90
2018-07-04T02:58:56.415Z,15.70
2018-07-04T03:02:38.439Z,15.70
2018-07-04T03:06:02.275Z,15.70
2018-07-04T03:09:26.183Z,15.40
2018-07-04T03:13:08.547Z,15.30
2018-07-04T03:16:50.697Z,15.40
2018-07-04T03:20:32.396Z,15.40
2018-07-04T03:24:14.294Z,15.40
2018-07-04T03:27:37.761Z,15.40
2018-07-04T03:31:19.891Z,15.50
2018-07-04T03:35:02.202Z,15.50
2018-07-04T03:38:44.245Z,15.40
2018-07-04T03:42:25.863Z,15.50
2018-07-04T03:46:08.049Z,15.40
2018-07-04T03:49:49.883Z,15.40
2018-07-04T03:53:31.609Z,15.30
2018-07-04T03:57:13.926Z,15.20
2018-07-04T04:00:56.176Z,15.30
2018-07-04T04:04:20.088Z,15.30
2018-07-04T04:08:02.240Z,15.40
2018-07-04T04:11:43.912Z,15.30
2018-07-04T04:15:07.398Z,15.30
2018-07-04T04:18:49.390Z,15.40
2018-07-04T04:22:31.858Z,15.40
2018-07-04T04:26:14.676Z,15.30
2018-07-04T04:29:56.752Z,15.40
2018-07-04T04:33:38.431Z,15.50
2018-07-04T04:37:20.234Z,15.50
2018-07-04T04:41:02.174Z,15.60
2018-07-04T04:44:43.495Z,15.80
2018-07-04T04:48:07.001Z,15.80
2018-07-04T04:51:48.748Z,16.00
2018-07-04T04:55:30.456Z,16.00
2018-07-04T04:59:12.273Z,16.20
2018-07-04T05:02:35.541Z,16.40
2018-07-04T05:06:17.119Z,16.40
2018-07-04T05:09:59.108Z,16.70
2018-07-04T05:13:40.877Z,16.70
2018-07-04T05:17:22.946Z,17.00
2018-07-04T05:21:05.011Z,17.20
2018-07-04T05:24:46.888Z,17.40
2018-07-04T05:28:28.779Z,17.50
2018-07-04T05:32:10.348Z,17.60
2018-07-04T05:35:52.116Z,18.00
2018-07-04T05:39:33.639Z,18.20
2018-07-04T05:43:15.359Z,18.40
2018-07-04T05:46:38.734Z,18.30
2018-07-04T05:50:20.177Z,18.60
2018-07-04T05:54:01.782Z,18.50
2018-07-04T05:57:43.664Z,18.70
2018-07-04T06:01:25.345Z,18.80
2018-07-04T06:05:07.458Z,19.00
2018-07-04T06:08:49.286Z,18.70
2018-07-04T06:12:30.803Z,19.10
2018-07-04T06:16:12.772Z,18.90
2018-07-04T06:19:54.586Z,18.80
2018-07-04T06:23:18.004Z,19.10
2018-07-04T06:26:41.573Z,19.10
2018-07-04T06:30:23.297Z,19.00
2018-07-04T06:33:46.367Z,18.80
2018-07-04T06:37:09.615Z,19.00
2018-07-04T06:39:54.551Z,19.00
2018-07-04T06:42:21.077Z,19.00
2018-07-04T06:44:47.576Z,18.90
2018-07-04T06:47:14.074Z,18.90
2018-07-04T06:49:41.073Z,18.90
2018-07-04T06:52:07.562Z,19.00
2018-07-04T06:54:34.172Z,19.10
2018-07-04T06:57:00.581Z,19.10
2018-07-04T06:59:27.074Z,19.30
2018-07-04T07:01:53.606Z,19.10
2018-07-04T07:05:29.166Z,19.20
2018-07-04T07:08:52.434Z,19.50
2018-07-04T07:12:34.281Z,19.70
2018-07-04T07:16:16.577Z,19.50
2018-07-04T07:19:58.579Z,19.80
2018-07-04T07:23:22.344Z,19.90
2018-07-04T07:27:04.220Z,19.80
2018-07-04T07:30:45.966Z,19.90
2018-07-04T07:34:27.753Z,20.10
2018-07-04T07:38:09.716Z,20.10
2018-07-04T07:41:32.957Z,20.10
2018-07-04T07:44:56.357Z,20.10
2018-07-04T07:48:38.457Z,20.50
2018-07-04T07:52:01.817Z,20.40
2018-07-04T07:55:43.934Z,20.10
2018-07-04T07:59:25.750Z,20.50
2018-07-04T08:03:07.625Z,20.30
2018-07-04T08:06:30.732Z,20.50
2018-07-04T08:10:12.760Z,20.60
2018-07-04T08:13:54.577Z,20.50
2018-07-04T08:17:36.645Z,21.00
2018-07-04T08:21:18.581Z,21.20
2018-07-04T08:25:00.533Z,21.50
2018-07-04T08:28:42.423Z,21.40
2018-07-04T08:32:24.149Z,21.50
2018-07-04T08:35:47.067Z,22.20
2018-07-04T08:39:28.692Z,22.50
2018-07-04T08:43:10.441Z,23.30
2018-07-04T08:46:52.429Z,22.80
2018-07-04T08:50:34.302Z,22.60
2018-07-04T08:54:15.885Z,22.90
2018-07-04T08:57:57.892Z,23.20
2018-07-04T09:01:39.687Z,23.00
2018-07-04T09:05:21.235Z,22.70
2018-07-04T09:09:03.008Z,22.80
2018-07-04T09:12:45.047Z,22.70
2018-07-04T09:16:27.261Z,23.00
2018-07-04T09:20:09.158Z,23.50
2018-07-04T09:23:50.992Z,23.20
2018-07-04T09:27:32.747Z,23.50
2018-07-04T09:30:56.054Z,23.70
2018-07-04T09:34:37.872Z,23.10
2018-07-04T09:38:20.069Z,23.10
2018-07-04T09:42:01.828Z,23.30
2018-07-04T09:45:43.840Z,23.10
2018-07-04T09:49:25.480Z,23.80
2018-07-04T09:53:07.106Z,23.60
2018-07-04T09:56:30.593Z,23.80
2018-07-04T09:59:53.962Z,23.60
2018-07-04T10:03:35.892Z,23.90
2018-07-04T10:07:17.939Z,24.00
2018-07-04T10:10:59.168Z,23.90
2018-07-04T10:14:40.988Z,24.50
2018-07-04T10:18:23.080Z,25.00
2018-07-04T10:21:46.334Z,24.80
2018-07-04T10:25:09.588Z,24.90
2018-07-04T10:28:32.910Z,24.80
2018-07-04T10:32:14.760Z,25.10
2018-07-04T10:35:37.967Z,25.00
2018-07-04T10:39:19.814Z,25.30
2018-07-04T10:43:01.437Z,25.90
2018-07-04T10:46:43.133Z,25.60
2018-07-04T10:50:25.007Z,25.30
2018-07-04T10:54:06.887Z,26.20
2018-07-04T10:57:48.789Z,26.10
2018-07-04T11:01:30.337Z,25.80
2018-07-04T11:05:12.132Z,26.20
2018-07-04T11:08:36.010Z,26.00
2018-07-04T11:12:18.271Z,26.30
2018-07-04T11:15:59.935Z,26.30
2018-07-04T11:19:41.672Z,26.50
2018-07-04T11:23:23.543Z,26.80
2018-07-04T11:27:05.530Z,26.50
2018-07-04T11:30:47.472Z,25.90
2018-07-04T11:34:29.130Z,25.20
2018-07-04T11:38:11.028Z,24.80
2018-07-04T11:41:52.904Z,24.50
2018-07-04T11:45:35.077Z,24.00
2018-07-04T11:48:20.228Z,23.70
2018-07-04T11:50:46.712Z,23.50
2018-07-04T11:53:13.431Z,23.60
2018-07-04T11:55:39.880Z,23.60
2018-07-04T11:58:06.384Z,23.20
2018-07-04T12:00:32.909Z,23.10
2018-07-04T12:02:59.404Z,23.20
2018-07-04T12:06:03.998Z,23.30
2018-07-04T12:08:49.024Z,22.90
2018-07-04T12:11:15.532Z,23.20
2018-07-04T12:13:42.539Z,22.70
2018-07-04T12:16:09.038Z,22.80
2018-07-04T12:20:52.194Z,23.00
2018-07-04T12:23:18.662Z,23.00
2018-07-04T12:25:45.160Z,22.90
2018-07-04T12:28:11.690Z,22.80
2018-07-04T12:30:38.180Z,23.20
2018-07-04T12:33:05.137Z,23.60
2018-07-04T12:35:31.654Z,23.30
2018-07-04T12:37:58.624Z,23.20
2018-07-04T12:40:25.126Z,23.10
2018-07-04T12:42:52.109Z,23.70
2018-07-04T12:45:18.612Z,23.90
2018-07-04T12:47:45.578Z,23.70
2018-07-04T12:50:31.546Z,24.10
2018-07-04T12:52:58.564Z,25.00
2018-07-04T12:56:21.605Z,24.60
2018-07-04T12:59:44.910Z,25.10
2018-07-04T13:03:26.796Z,25.90
2018-07-04T13:07:08.226Z,26.80
2018-07-04T13:10:31.705Z,26.50
2018-07-04T13:14:13.754Z,26.60
2018-07-04T13:17:55.665Z,28.00
2018-07-04T13:21:19.076Z,26.80
2018-07-04T13:24:42.784Z,27.80
2018-07-04T13:28:24.775Z,28.30
2018-07-04T13:32:06.673Z,27.70
2018-07-04T13:35:48.042Z,28.10
2018-07-04T13:39:29.828Z,27.80
2018-07-04T13:43:11.886Z,28.40
2018-07-04T13:46:53.981Z,27.70
2018-07-04T13:50:17.072Z,26.70
2018-07-04T13:53:58.937Z,26.20
2018-07-04T13:57:22.259Z,26.00
2018-07-04T14:01:04.142Z,26.10
2018-07-04T14:04:46.103Z,27.00
2018-07-04T14:08:27.983Z,25.70
2018-07-04T14:12:09.250Z,26.70
2018-07-04T14:15:51.312Z,26.90
2018-07-04T14:19:33.245Z,27.10
2018-07-04T14:23:15.135Z,27.00
2018-07-04T14:26:57.034Z,27.30
2018-07-04T14:30:20.273Z,28.10
2018-07-04T14:34:02.129Z,27.20
2018-07-04T14:37:43.969Z,27.90
2018-07-04T14:41:25.598Z,27.50
2018-07-04T14:45:07.072Z,27.90
2018-07-04T14:48:48.535Z,27.80
2018-07-04T14:52:30.546Z,27.10
2018-07-04T14:56:12.253Z,26.90
2018-07-04T14:59:54.049Z,28.60
2018-07-04T15:03:17.251Z,28.40
2018-07-04T15:06:40.250Z,31.10
2018-07-04T15:10:21.854Z,31.80
2018-07-04T15:14:03.309Z,32.00
2018-07-04T15:17:45.280Z,30.40
2018-07-04T15:21:27.174Z,29.90
2018-07-04T15:25:09.256Z,30.40
2018-07-04T15:28:51.148Z,29.60
2018-07-04T15:32:32.585Z,29.10
2018-07-04T15:36:14.137Z,29.00
2018-07-04T15:39:56.146Z,29.50
2018-07-04T15:43:37.902Z,29.00
2018-07-04T15:47:19.730Z,29.40
2018-07-04T15:51:01.248Z,29.10
2018-07-04T15:54:43.225Z,29.40
2018-07-04T15:58:25.202Z,29.40
2018-07-04T16:02:06.908Z,29.20
2018-07-04T16:05:48.398Z,30.00
2018-07-04T16:09:30.146Z,29.80
2018-07-04T16:13:12.188Z,30.00
2018-07-04T16:16:53.972Z,30.20
2018-07-04T16:20:17.219Z,30.00
2018-07-04T16:23:59.135Z,30.40
2018-07-04T16:27:40.636Z,32.10
2018-07-04T16:31:22.516Z,30.00
2018-07-04T16:34:45.656Z,29.60
2018-07-04T16:38:27.645Z,30.10
2018-07-04T16:41:51.209Z,29.90
2018-07-04T16:45:33.120Z,32.50
2018-07-04T16:49:14.872Z,32.40
2018-07-04T16:52:56.601Z,30.10
2018-07-04T16:56:19.935Z,31.20
2018-07-04T17:00:02.015Z,30.00
2018-07-04T17:03:43.909Z,30.40
2018-07-04T17:07:25.479Z,29.70
2018-07-04T17:11:07.178Z,28.90
2018-07-04T17:14:30.521Z,29.60
2018-07-04T17:18:12.452Z,29.10
2018-07-04T17:21:54.402Z,29.20
2018-07-04T17:25:17.781Z,29.10
2018-07-04T17:28:59.605Z,29.10
2018-07-04T17:32:22.885Z,28.20
2018-07-04T17:35:45.751Z,28.00
2018-07-04T17:39:08.870Z,27.20
2018-07-04T17:42:31.856Z,28.40
2018-07-04T17:46:13.734Z,28.80
2018-07-04T17:49:55.588Z,28.70
2018-07-04T17:53:37.650Z,28.50
2018-07-04T17:57:19.506Z,29.80
2018-07-04T18:01:01.465Z,29.60
2018-07-04T18:04:42.940Z,29.90
2018-07-04T18:08:24.684Z,29.90
2018-07-04T18:12:06.374Z,30.50
2018-07-04T18:15:48.331Z,29.80
2018-07-04T18:19:30.146Z,29.80
2018-07-04T18:23:12.259Z,29.90
2018-07-04T18:26:53.988Z,29.90
2018-07-04T18:30:17.315Z,29.80
2018-07-04T18:33:59.331Z,28.90
2018-07-04T18:37:22.787Z,28.00
2018-07-04T18:40:46.020Z,28.20
2018-07-04T18:44:27.811Z,27.70
2018-07-04T18:48:09.529Z,27.40
2018-07-04T18:51:51.287Z,25.90
2018-07-04T18:55:14.639Z,26.20
2018-07-04T18:58:56.466Z,26.30
2018-07-04T19:02:20.105Z,26.00
2018-07-04T19:06:01.735Z,25.80
2018-07-04T19:09:43.574Z,25.00
2018-07-04T19:13:25.178Z,24.80
2018-07-04T19:17:07.186Z,24.00
2018-07-04T19:20:30.514Z,23.90
2018-07-04T19:24:12.349Z,24.20
2018-07-04T19:27:35.648Z,23.70
2018-07-04T19:30:58.818Z,23.60
2018-07-04T19:34:40.403Z,23.40
2018-07-04T19:38:22.173Z,23.10
2018-07-04T19:41:45.626Z,22.90
2018-07-04T19:45:27.453Z,22.60
2018-07-04T19:49:09.138Z,22.60
2018-07-04T19:53:00.003Z,22.40
2018-07-04T19:56:23.554Z,22.40
2018-07-04T19:59:47.047Z,22.20
2018-07-04T20:03:10.431Z,22.10
2018-07-04T20:06:52.840Z,21.40
2018-07-04T20:10:38.541Z,20.90
2018-07-04T20:14:20.970Z,21.70
2018-07-04T20:18:03.233Z,21.70
2018-07-04T20:21:45.141Z,21.30
2018-07-04T20:25:11.243Z,20.40
2018-07-04T20:28:41.789Z,21.00
2018-07-04T20:32:23.857Z,20.30
2018-07-04T20:35:47.161Z,20.00
2018-07-04T20:39:28.780Z,20.80
2018-07-04T20:43:10.822Z,19.90
2018-07-04T20:46:52.761Z,19.80
2018-07-04T20:50:34.538Z,20.00
2018-07-04T20:53:57.816Z,20.50
2018-07-04T20:57:39.077Z,20.30
2018-07-04T21:01:21.067Z,19.90
2018-07-04T21:05:02.853Z,19.80
2018-07-04T21:08:44.647Z,19.90
2018-07-04T21:12:26.535Z,19.70
2018-07-04T21:16:08.295Z,19.90
2018-07-04T21:19:50.726Z,19.90
2018-07-04T21:23:13.952Z,19.90
2018-07-04T21:26:37.423Z,19.80
2018-07-04T21:30:19.344Z,19.90
2018-07-04T21:34:01.241Z,19.60
2018-07-04T21:37:42.996Z,19.70
2018-07-04T21:41:24.611Z,19.70
2018-07-04T21:45:06.731Z,19.40
2018-07-04T21:48:31.067Z,19.10
2018-07-04T21:52:12.738Z,19.30
2018-07-04T21:55:54.584Z,19.30
2018-07-04T21:59:36.457Z,19.00
2018-07-04T22:03:18.290Z,19.00
2018-07-04T22:07:00.310Z,19.00
2018-07-04T22:10:42.663Z,18.80
2018-07-04T22:14:05.834Z,19.00
2018-07-04T22:17:29.571Z,18.60
2018-07-04T22:21:11.189Z,18.80
2018-07-04T22:24:34.520Z,19.00
2018-07-04T22:27:57.841Z,18.80
2018-07-04T22:31:39.710Z,18.50
2018-07-04T22:35:21.733Z,18.40
2018-07-04T22:39:04.199Z,18.30
2018-07-04T22:42:46.607Z,18.40
2018-07-04T22:46:10.217Z,18.20
2018-07-04T22:49:33.628Z,18.10
2018-07-04T22:53:15.131Z,18.30
2018-07-04T22:56:57.187Z,18.10
2018-07-04T23:00:38.979Z,18.20
2018-07-04T23:04:02.320Z,18.10
2018-07-04T23:07:43.916Z,17.80
2018-07-04T23:11:07.365Z,17.80
2018-07-04T23:14:49.216Z,17.80
2018-07-04T23:18:21.888Z,17.50
2018-07-04T23:22:03.276Z,17.20
2018-07-04T23:25:26.493Z,16.90
2018-07-04T23:28:49.919Z,16.90
2018-07-04T23:44:15.221Z,17.30
2018-07-04T23:47:38.591Z,17.30
2018-07-04T23:51:20.245Z,17.20
2018-07-04T23:55:02.061Z,17.10
2018-07-04T23:58:25.115Z,17.00
